Time;durP1;ratioP1;P1;durP2;ratioP2;P2;SDS_P1;SDS_P2;PMS_P1;PMS_P2;Temp;Humidity;BMP_temperature;BMP_pressure;BME280_temperature;BME280_humidity;BME280_pressure;Samples;Min_cycle;Max_cycle;Signal;HPM_P1;HPM_P2
2021/06/22 04:47:40;;;;;;;13.85;6.42;;;;;;;20.44;84.77;97732.36;1871526;76;22647;-70
2021/06/22 04:50:09;;;;;;;22.00;5.85;;;;;;;20.48;84.49;97735.92;1827889;78;20872;-68
2021/06/22 04:52:36;;;;;;;18.32;5.25;;;;;;;20.58;84.23;97739.98;1827950;78;21352;-68
2021/06/22 04:55:12;;;;;;;16.87;5.33;;;;;;;20.70;84.01;97747.98;1827795;78;20928;-71
2021/06/22 04:57:35;;;;;;;16.67;4.40;;;;;;;20.84;83.65;97755.05;1827363;78;20900;-66
2021/06/22 05:00:03;;;;;;;16.75;4.33;;;;;;;21.00;83.23;97759.22;1827825;78;21112;-69
2021/06/22 05:02:30;;;;;;;19.15;5.28;;;;;;;21.16;82.71;97765.92;1828084;78;21252;-67
2021/06/22 05:04:57;;;;;;;15.53;4.70;;;;;;;21.34;82.29;97768.34;1827817;78;21108;-68
2021/06/22 05:07:25;;;;;;;20.62;4.75;;;;;;;21.51;81.82;97761.03;1827636;78;20908;-69
2021/06/22 05:09:52;;;;;;;12.95;4.50;;;;;;;21.65;81.22;97757.14;1827861;78;20955;-68
2021/06/22 05:12:18;;;;;;;17.12;5.00;;;;;;;21.78;80.63;97757.16;1828103;78;21406;-70
2021/06/22 05:14:47;;;;;;;15.28;4.28;;;;;;;21.90;80.22;97755.38;1827869;78;20884;-71
2021/06/22 05:17:14;;;;;;;16.32;4.83;;;;;;;22.00;79.77;97750.66;1761448;80;21089;-70
2021/06/22 05:19:40;;;;;;;17.10;4.55;;;;;;;22.12;79.34;97751.75;1791527;80;20895;-70
2021/06/22 05:22:07;;;;;;;17.50;4.30;;;;;;;22.22;78.88;97745.08;1791303;80;20875;-70
2021/06/22 05:24:34;;;;;;;13.43;4.92;;;;;;;22.33;78.57;97755.52;1791580;80;20947;-70
2021/06/22 05:27:01;;;;;;;16.35;4.50;;;;;;;22.41;78.16;97757.19;1791277;80;20879;-71
2021/06/22 05:29:27;;;;;;;10.63;4.28;;;;;;;22.49;77.80;97760.79;1791435;80;21004;-69
2021/06/22 05:31:54;;;;;;;19.57;5.20;;;;;;;22.57;77.44;97762.42;1791622;80;21442;-70
2021/06/22 05:34:21;;;;;;;21.90;5.10;;;;;;;22.67;77.17;97766.45;1791354;80;20859;-68
2021/06/22 05:36:48;;;;;;;15.55;4.60;;;;;;;22.72;76.66;97768.28;1791580;80;21426;-68
2021/06/22 05:39:14;;;;;;;16.12;4.10;;;;;;;22.79;76.25;97768.34;1791374;80;20974;-69
2021/06/22 05:41:42;;;;;;;16.00;4.50;;;;;;;22.85;75.73;97770.93;1791354;80;21050;-68
2021/06/22 05:44:09;;;;;;;14.38;3.85;;;;;;;22.94;75.56;97768.67;1791309;80;20899;-67
2021/06/22 05:46:36;;;;;;;15.55;4.05;;;;;;;23.03;74.73;97768.38;1786733;80;21418;-68
2021/06/22 05:49:03;;;;;;;17.25;4.33;;;;;;;23.11;73.71;97768.05;1781075;80;20911;-69
2021/06/22 05:51:29;;;;;;;13.08;4.20;;;;;;;23.19;73.41;97769.48;1781174;80;20907;-69
2021/06/22 05:53:57;;;;;;;20.68;4.30;;;;;;;23.25;73.00;97762.52;1781056;80;21182;-72
2021/06/22 05:56:24;;;;;;;17.70;4.08;;;;;;;23.31;72.56;97765.09;1781207;80;20923;-69
2021/06/22 05:58:55;;;;;;;25.48;4.05;;;;;;;23.39;72.39;97766.77;1779619;80;20974;-65
2021/06/22 06:01:21;;;;;;;12.05;4.47;;;;;;;23.48;72.05;97769.95;1770389;80;21437;-68
2021/06/22 06:03:49;;;;;;;15.63;3.95;;;;;;;23.57;71.09;97778.03;1775668;80;20875;-67
2021/06/22 06:06:18;;;;;;;19.05;4.15;;;;;;;23.63;70.61;97777.06;1765611;80;20941;-69
2021/06/22 06:08:44;;;;;;;17.92;3.60;;;;;;;23.72;70.59;97788.45;1757791;81;21123;-69
2021/06/22 06:11:11;;;;;;;15.23;4.00;;;;;;;23.79;70.13;97788.50;1778854;80;21073;-69
2021/06/22 06:13:40;;;;;;;15.70;3.45;;;;;;;23.86;69.81;97802.22;1771481;81;20991;-68
2021/06/22 06:16:07;;;;;;;13.75;3.22;;;;;;;23.94;69.62;97801.10;1759348;81;21047;-68
2021/06/22 06:18:35;;;;;;;16.95;3.60;;;;;;;24.03;68.97;97798.02;1752579;81;21042;-71
2021/06/22 06:21:03;;;;;;;18.10;3.83;;;;;;;24.12;68.73;97801.25;1772041;81;21083;-69
2021/06/22 06:23:38;;;;;;;10.50;3.70;;;;;;;24.19;68.26;97802.05;1771786;80;21495;-70
2021/06/22 06:25:59;;;;;;;18.82;3.62;;;;;;;24.27;67.71;97803.66;1759251;80;21004;-70
2021/06/22 06:28:31;;;;;;;21.52;4.08;;;;;;;24.32;66.92;97802.50;1768321;80;21563;-68
2021/06/22 06:30:57;;;;;;;20.05;3.77;;;;;;;24.36;66.36;97798.61;1814470;78;21511;-70
2021/06/22 06:33:24;;;;;;;13.20;3.15;;;;;;;24.42;66.23;97797.06;1803926;77;21132;-70
2021/06/22 06:35:55;;;;;;;21.37;3.75;;;;;;;24.48;65.69;97798.27;1813506;78;20996;-70
2021/06/22 06:38:21;;;;;;;10.38;3.37;;;;;;;24.54;65.18;97800.06;1808482;78;20852;-70
2021/06/22 06:40:49;;;;;;;16.27;3.77;;;;;;;24.65;64.73;97795.39;1811520;78;20872;-70
2021/06/22 06:43:15;;;;;;;16.80;3.42;;;;;;;24.71;63.97;97802.62;1794473;78;21772;-71
2021/06/22 06:45:42;;;;;;;17.17;3.62;;;;;;;24.79;64.17;97802.89;1814048;77;21030;-70
2021/06/22 06:48:09;;;;;;;16.73;4.03;;;;;;;24.88;64.20;97809.56;1759994;79;20967;-74
2021/06/22 06:50:36;;;;;;;18.70;3.67;;;;;;;24.94;63.99;97799.02;1763991;80;21460;-71
2021/06/22 06:53:03;;;;;;;16.30;3.90;;;;;;;24.98;63.92;97794.33;1763056;80;20983;-71
2021/06/22 06:55:40;;;;;;;14.53;3.15;;;;;;;25.08;64.02;97798.44;1752320;81;21109;-71
2021/06/22 06:58:13;;;;;;;14.33;3.98;;;;;;;25.16;63.33;97803.34;1757131;81;21433;-70
2021/06/22 07:00:46;;;;;;;20.20;4.17;;;;;;;25.24;63.28;97809.04;1752299;80;20922;-70
2021/06/22 07:03:14;;;;;;;13.15;3.35;;;;;;;25.32;63.80;97798.87;1760534;81;20953;-67
2021/06/22 07:05:41;;;;;;;18.60;4.40;;;;;;;25.40;64.08;97803.95;1753216;81;21397;-70
2021/06/22 07:08:09;;;;;;;18.77;3.80;;;;;;;25.45;64.04;97798.69;1750548;80;21131;-68
2021/06/22 07:10:36;;;;;;;20.17;3.20;;;;;;;25.49;63.95;97797.52;1757756;81;21471;-69
2021/06/22 07:13:05;;;;;;;21.85;3.75;;;;;;;25.53;62.13;97803.01;1757959;81;20944;-68
2021/06/22 07:15:33;;;;;;;19.87;3.55;;;;;;;25.55;61.25;97790.48;1760199;81;20961;-68
2021/06/22 07:18:00;;;;;;;14.87;3.72;;;;;;;25.60;61.13;97789.30;1750153;80;20982;-67
2021/06/22 07:20:27;;;;;;;18.62;3.80;;;;;;;25.66;60.06;97789.08;1753987;80;21204;-67
2021/06/22 07:22:54;;;;;;;16.00;3.22;;;;;;;25.73;60.02;97791.23;1746827;81;22146;-66
2021/06/22 07:25:25;;;;;;;20.00;3.77;;;;;;;25.81;61.06;97788.66;1745736;81;21099;-67
2021/06/22 07:27:50;;;;;;;19.42;3.85;;;;;;;25.86;61.09;97788.87;1759272;81;21539;-66
2021/06/22 07:30:19;;;;;;;17.82;3.60;;;;;;;25.91;60.21;97798.66;1759236;81;21028;-70
2021/06/22 07:32:45;;;;;;;20.00;3.27;;;;;;;26.01;59.91;97795.08;1759472;81;21853;-70
2021/06/22 07:35:13;;;;;;;15.75;3.52;;;;;;;26.01;59.91;97795.08;1759467;81;20976;-70
2021/06/22 07:37:40;;;;;;;23.87;3.80;;;;;;;26.01;59.56;97797.83;1759627;80;20929;-70
2021/06/22 07:40:09;;;;;;;17.07;3.20;;;;;;;25.98;59.56;97797.27;1753813;81;20905;-68
2021/06/22 07:42:36;;;;;;;18.75;3.52;;;;;;;25.97;59.36;97796.48;1748851;80;20976;-69
2021/06/22 07:45:05;;;;;;;15.20;3.12;;;;;;;26.04;60.00;97798.41;1750832;80;21097;-68
2021/06/22 07:47:34;;;;;;;18.52;3.77;;;;;;;26.12;60.35;97803.51;1749268;81;21072;-73
2021/06/22 07:50:02;;;;;;;14.47;3.30;;;;;;;26.29;59.75;97800.52;1772679;80;21124;-69
2021/06/22 07:52:29;;;;;;;17.48;3.47;;;;;;;26.29;59.75;97800.52;1775090;80;21482;-68
2021/06/22 07:54:58;;;;;;;16.40;3.70;;;;;;;26.36;59.89;97802.66;1778116;80;21063;-68
2021/06/22 07:57:25;;;;;;;13.13;3.20;;;;;;;26.45;59.30;97806.33;1772731;80;21833;-68
2021/06/22 07:59:52;;;;;;;23.55;4.00;;;;;;;26.57;59.92;97803.76;1768384;81;21112;-70
2021/06/22 08:02:19;;;;;;;14.53;3.17;;;;;;;26.69;59.92;97798.58;1769508;80;20958;-68
2021/06/22 08:04:45;;;;;;;13.98;3.72;;;;;;;26.81;57.67;97801.48;1770105;80;20930;-71
2021/06/22 08:07:12;;;;;;;16.80;3.67;;;;;;;26.78;57.61;97790.70;1777411;80;21013;-71
2021/06/22 08:09:39;;;;;;;19.15;3.75;;;;;;;26.73;57.81;97795.24;1774435;80;21500;-66
2021/06/22 08:12:08;;;;;;;16.20;3.60;;;;;;;26.69;58.36;97792.30;1760463;80;20971;-69
2021/06/22 08:14:37;;;;;;;16.17;3.30;;;;;;;26.70;59.03;97801.53;1766004;80;20965;-71
2021/06/22 08:17:04;;;;;;;15.78;3.45;;;;;;;26.75;58.39;97801.14;1780957;80;21025;-72
2021/06/22 08:19:31;;;;;;;12.03;3.10;;;;;;;26.85;57.53;97797.53;1780813;80;21121;-68
2021/06/22 08:21:57;;;;;;;18.62;3.95;;;;;;;26.99;57.14;97798.81;1750837;80;21124;-68
2021/06/22 08:24:25;;;;;;;15.75;3.50;;;;;;;27.14;57.44;97791.27;1752628;80;21061;-68
2021/06/22 08:26:51;;;;;;;15.32;3.80;;;;;;;27.30;56.95;97795.66;1778561;80;21051;-68
2021/06/22 08:29:18;;;;;;;12.58;3.42;;;;;;;27.37;56.55;97786.00;1780735;80;21059;-65
2021/06/22 08:31:45;;;;;;;13.93;3.67;;;;;;;27.36;56.43;97783.05;1781079;80;21399;-66
2021/06/22 08:34:12;;;;;;;15.10;3.60;;;;;;;27.42;56.57;97775.16;1776971;80;21110;-65
2021/06/22 08:36:40;;;;;;;13.88;3.42;;;;;;;27.46;57.28;97781.44;1770821;80;21102;-65
2021/06/22 08:39:08;;;;;;;11.97;3.50;;;;;;;27.51;57.00;97781.76;1764401;79;21008;-65
2021/06/22 08:41:35;;;;;;;12.95;3.30;;;;;;;27.57;56.68;97783.48;1748437;82;21412;-63
2021/06/22 08:44:04;;;;;;;14.65;3.70;;;;;;;27.63;56.90;97784.60;1749650;82;21044;-67
2021/06/22 08:46:31;;;;;;;21.10;3.50;;;;;;;27.70;56.24;97781.78;1748614;82;21539;-66
2021/06/22 08:48:59;;;;;;;16.65;3.47;;;;;;;27.80;55.51;97783.07;1755896;80;21275;-67
2021/06/22 08:51:26;;;;;;;18.15;3.98;;;;;;;27.86;55.68;97786.76;1746882;80;21126;-66
2021/06/22 08:53:53;;;;;;;11.38;3.00;;;;;;;27.85;55.27;97776.34;1781128;80;21020;-63
2021/06/22 08:56:20;;;;;;;11.80;3.20;;;;;;;27.85;56.00;97780.47;1781098;80;21062;-64
2021/06/22 08:58:47;;;;;;;13.28;3.25;;;;;;;27.88;55.68;97779.66;1781071;80;21106;-65
2021/06/22 09:01:15;;;;;;;18.48;4.70;;;;;;;27.95;54.87;97780.96;1782118;80;20983;-70
2021/06/22 09:03:42;;;;;;;15.78;3.92;;;;;;;28.06;54.57;97791.28;1782385;80;21511;-67
2021/06/22 09:06:09;;;;;;;16.52;3.47;;;;;;;28.05;53.70;97784.20;1782487;80;20990;-64
2021/06/22 09:08:35;;;;;;;11.70;3.62;;;;;;;28.01;53.52;97781.30;1781272;80;20973;-63
2021/06/22 09:11:15;;;;;;;18.37;3.90;;;;;;;27.99;53.93;97785.85;1769556;80;21111;-68
2021/06/22 09:13:44;;;;;;;16.07;3.62;;;;;;;28.10;53.94;97774.73;1769782;80;20961;-66
2021/06/22 09:16:14;;;;;;;11.68;3.70;;;;;;;28.26;52.60;97777.70;1769129;80;20936;-64
2021/06/22 09:18:44;;;;;;;12.33;3.67;;;;;;;28.39;52.51;97776.73;1777978;80;21067;-70
2021/06/22 09:21:24;;;;;;;17.70;3.47;;;;;;;28.45;52.55;97783.34;1765124;80;21100;-67
2021/06/22 09:23:55;;;;;;;15.05;3.60;;;;;;;28.57;52.23;97783.37;1779484;80;21097;-72
2021/06/22 09:26:31;;;;;;;10.80;2.70;;;;;;;28.76;52.06;97777.88;1768813;80;21035;-66
2021/06/22 09:29:09;;;;;;;16.52;3.60;;;;;;;28.84;51.35;97787.59;1783765;79;21465;-68
2021/06/22 09:31:57;;;;;;;15.43;3.12;;;;;;;28.86;51.23;97785.19;1796970;79;20976;-68
2021/06/22 09:34:26;;;;;;;18.82;4.00;;;;;;;28.88;51.53;97791.85;1771340;79;21058;-65
2021/06/22 09:36:59;;;;;;;20.90;3.33;;;;;;;28.95;51.71;97793.72;1756620;81;21103;-64
2021/06/22 09:39:28;;;;;;;16.10;3.22;;;;;;;29.02;50.35;97792.23;1776053;79;20926;-68
2021/06/22 09:41:57;;;;;;;14.23;2.50;;;;;;;29.11;50.27;97799.41;1779746;80;20958;-65
2021/06/22 09:44:26;;;;;;;11.28;2.47;;;;;;;29.22;48.66;97802.81;1779359;80;20951;-64
2021/06/22 09:47:05;;;;;;;16.80;2.70;;;;;;;29.25;47.68;97786.81;1782539;79;21111;-62
2021/06/22 09:49:40;;;;;;;17.92;3.02;;;;;;;29.30;46.99;97784.18;1779991;80;21170;-67
2021/06/22 09:54:31;;;;;;;12.85;2.67;;;;;;;29.39;47.16;97779.69;1859191;76;22084;-66
2021/06/22 09:57:06;;;;;;;15.55;2.80;;;;;;;29.39;46.59;97781.07;1818994;78;20912;-64
2021/06/22 09:59:50;;;;;;;17.75;2.80;;;;;;;29.39;46.21;97779.69;1819544;78;21079;-70
2021/06/22 10:02:18;;;;;;;15.03;2.35;;;;;;;29.43;45.35;97774.89;1819161;78;21628;-68
2021/06/22 10:04:47;;;;;;;14.68;2.60;;;;;;;29.43;44.41;97772.12;1819217;78;20873;-68
2021/06/22 10:07:16;;;;;;;14.90;2.40;;;;;;;29.43;44.65;97768.58;1819470;78;20928;-65
2021/06/22 10:09:43;;;;;;;10.20;2.50;;;;;;;29.47;44.61;97767.32;1840231;77;20953;-65
2021/06/22 10:12:13;;;;;;;14.33;2.20;;;;;;;29.53;45.15;97771.17;1861900;77;21102;-65
2021/06/22 10:14:52;;;;;;;8.98;2.15;;;;;;;29.60;44.06;97769.67;1862213;77;20915;-65
2021/06/22 10:17:25;;;;;;;8.98;2.40;;;;;;;29.64;43.51;97757.97;1861968;77;20896;-71
2021/06/22 10:19:57;;;;;;;11.20;2.30;;;;;;;29.71;43.77;97757.84;1862289;77;20872;-65
2021/06/22 10:22:28;;;;;;;8.20;2.05;;;;;;;29.77;44.95;97756.16;1862252;77;20928;-64
2021/06/22 10:24:59;;;;;;;12.50;2.72;;;;;;;29.84;45.48;97750.35;1862184;77;21635;-64
2021/06/22 10:27:27;;;;;;;12.75;2.80;;;;;;;29.88;45.83;97746.92;1862392;77;21030;-64
2021/06/22 10:29:56;;;;;;;10.05;2.17;;;;;;;29.88;45.89;97741.39;1860678;77;21101;-63
2021/06/22 10:32:24;;;;;;;13.80;2.47;;;;;;;29.93;44.65;97750.57;1861600;77;21002;-63
2021/06/22 10:34:54;;;;;;;16.12;2.37;;;;;;;29.96;43.60;97756.64;1820064;77;21369;-63
2021/06/22 10:37:35;;;;;;;14.10;2.27;;;;;;;29.99;42.88;97754.39;1791278;77;21700;-66
2021/06/22 10:40:25;;;;;;;12.58;1.92;;;;;;;30.03;43.78;97748.22;1811994;79;20931;-69
2021/06/22 10:42:54;;;;;;;11.60;2.45;;;;;;;30.06;42.88;97754.25;1818570;79;21002;-64
2021/06/22 10:45:21;;;;;;;10.45;2.30;;;;;;;30.09;42.77;97750.65;1819102;78;21011;-63
2021/06/22 10:47:49;;;;;;;10.03;2.30;;;;;;;30.14;43.09;97751.54;1805542;77;21028;-68
2021/06/22 10:50:27;;;;;;;11.35;2.37;;;;;;;30.18;43.12;97748.88;1803691;79;22328;-63
2021/06/22 10:53:08;;;;;;;15.18;2.50;;;;;;;30.23;42.40;97755.89;1816637;77;20958;-64
2021/06/22 10:55:47;;;;;;;9.38;1.82;;;;;;;30.26;43.40;97754.45;1824152;78;20857;-62
2021/06/22 10:58:16;;;;;;;11.55;2.37;;;;;;;30.30;42.73;97759.89;1825187;77;21392;-61
2021/06/22 11:00:51;;;;;;;22.55;2.42;;;;;;;30.36;43.12;97756.22;1825472;78;20906;-62
2021/06/22 11:03:31;;;;;;;10.18;2.40;;;;;;;30.43;42.71;97753.94;1825448;78;21112;-61
2021/06/22 11:06:14;;;;;;;9.83;2.37;;;;;;;30.46;42.91;97754.45;1824824;78;20941;-65
2021/06/22 11:08:43;;;;;;;13.62;2.20;;;;;;;30.50;42.69;97753.79;1824681;78;20992;-64
2021/06/22 11:11:15;;;;;;;9.58;1.90;;;;;;;30.52;42.01;97751.97;1823961;78;21451;-62
2021/06/22 11:13:57;;;;;;;11.22;2.17;;;;;;;30.54;40.76;97748.95;1807681;78;20833;-63
2021/06/22 11:16:28;;;;;;;10.88;2.05;;;;;;;30.58;40.50;97749.65;1810213;78;21198;-66
2021/06/22 11:19:05;;;;;;;10.95;2.05;;;;;;;30.64;40.30;97743.81;1824153;78;20972;-63
2021/06/22 11:21:51;;;;;;;12.85;2.17;;;;;;;30.70;41.58;97746.23;1824797;78;21338;-66
2021/06/22 11:24:25;;;;;;;8.40;1.92;;;;;;;30.74;40.29;97752.45;1823229;78;20935;-66
2021/06/22 11:26:59;;;;;;;8.78;1.72;;;;;;;30.79;39.31;97750.56;1791694;79;21001;-61
2021/06/22 11:29:41;;;;;;;7.37;1.70;;;;;;;30.86;38.89;97744.08;1814655;78;21080;-63
2021/06/22 11:32:08;;;;;;;8.48;1.52;;;;;;;30.99;38.71;97748.56;1798425;78;20916;-61
2021/06/22 11:34:55;;;;;;;8.20;2.50;;;;;;;31.15;38.66;97751.93;1792907;79;20848;-61
2021/06/22 11:37:24;;;;;;;10.40;2.10;;;;;;;31.29;40.30;97750.80;1792312;79;21588;-62
2021/06/22 11:40:12;;;;;;;12.10;2.10;;;;;;;31.47;40.45;97751.16;1832987;77;20912;-62
2021/06/22 11:42:40;;;;;;;8.28;1.90;;;;;;;31.63;40.31;97752.55;1855280;77;21253;-63
2021/06/22 11:45:20;;;;;;;15.18;2.25;;;;;;;31.82;40.80;97742.55;1855746;77;21482;-63
2021/06/22 11:47:50;;;;;;;10.30;2.22;;;;;;;31.91;41.13;97746.25;1855497;77;20990;-62
2021/06/22 11:50:24;;;;;;;14.30;2.45;;;;;;;32.04;42.32;97730.48;1855433;77;21651;-62
2021/06/22 11:53:01;;;;;;;9.05;2.52;;;;;;;32.20;41.79;97729.63;1796228;77;21395;-63
2021/06/22 11:55:28;;;;;;;10.78;2.47;;;;;;;32.32;41.39;97732.44;1795490;79;22291;-64
2021/06/22 11:57:58;;;;;;;13.20;2.22;;;;;;;32.51;41.36;97733.49;1830955;77;20969;-61
2021/06/22 12:00:29;;;;;;;11.10;2.60;;;;;;;32.63;40.34;97726.41;1806065;79;21531;-62
2021/06/22 12:02:58;;;;;;;15.35;2.75;;;;;;;32.70;40.60;97731.73;1796309;78;21022;-59
2021/06/22 12:05:33;;;;;;;10.20;2.27;;;;;;;32.83;40.58;97728.38;1805847;79;20963;-61
2021/06/22 12:08:03;;;;;;;11.97;2.33;;;;;;;32.97;39.97;97729.31;1805899;79;21432;-60
2021/06/22 12:10:51;;;;;;;9.20;2.22;;;;;;;33.07;40.10;97720.66;1795776;78;21126;-61
2021/06/22 12:13:35;;;;;;;8.73;2.12;;;;;;;33.19;40.06;97721.11;1813984;79;20882;-61
2021/06/22 12:16:27;;;;;;;9.08;2.58;;;;;;;33.26;40.32;97729.95;1815021;79;20954;-62
2021/06/22 12:18:57;;;;;;;10.53;2.47;;;;;;;33.22;40.72;97729.31;1814509;79;21610;-61
2021/06/22 12:21:25;;;;;;;10.88;2.22;;;;;;;33.15;39.88;97723.98;1814197;79;21145;-61
2021/06/22 12:24:03;;;;;;;8.05;2.22;;;;;;;32.97;40.05;97723.77;1814809;79;20874;-62
2021/06/22 12:26:30;;;;;;;12.85;2.37;;;;;;;32.86;41.09;97722.70;1813790;79;21088;-61
2021/06/22 12:28:57;;;;;;;9.18;2.15;;;;;;;32.84;40.49;97707.12;1793722;79;21001;-63
2021/06/22 12:31:24;;;;;;;10.00;2.00;;;;;;;32.78;40.47;97715.06;1787226;80;20951;-65
2021/06/22 12:33:51;;;;;;;8.65;1.90;;;;;;;32.73;41.55;97716.39;1787068;80;21023;-62
2021/06/22 12:36:20;;;;;;;8.03;2.20;;;;;;;32.69;40.69;97717.72;1740524;80;21488;-62
2021/06/22 12:38:56;;;;;;;8.15;2.35;;;;;;;32.61;40.68;97720.53;1826359;77;20912;-61
2021/06/22 12:41:29;;;;;;;11.25;2.25;;;;;;;32.57;41.00;97723.43;1855656;77;20920;-59
2021/06/22 12:43:55;;;;;;;8.83;2.00;;;;;;;32.63;40.93;97717.48;1798779;79;20979;-60
2021/06/22 12:46:26;;;;;;;6.47;2.10;;;;;;;32.81;40.58;97718.34;1793998;79;21049;-62
2021/06/22 12:48:59;;;;;;;6.12;2.30;;;;;;;32.87;39.54;97711.00;1775334;79;21059;-60
2021/06/22 12:51:38;;;;;;;8.10;1.90;;;;;;;32.83;39.71;97711.12;1776051;79;21079;-60
2021/06/22 12:54:07;;;;;;;13.03;2.30;;;;;;;32.76;39.89;97716.12;1783374;79;20888;-62
2021/06/22 12:57:00;;;;;;;11.70;2.05;;;;;;;32.67;40.39;97713.98;1798318;78;21418;-60
2021/06/22 12:59:29;;;;;;;8.40;2.00;;;;;;;32.61;39.68;97713.00;1821804;78;22273;-62
2021/06/22 13:02:07;;;;;;;6.28;1.62;;;;;;;32.58;40.17;97710.31;1823882;78;20910;-61
2021/06/22 13:04:46;;;;;;;6.42;2.25;;;;;;;32.56;39.84;97709.98;1823864;78;20895;-60
2021/06/22 13:07:16;;;;;;;9.70;1.62;;;;;;;32.46;39.70;97716.63;1824195;78;21458;-61
2021/06/22 13:09:44;;;;;;;10.65;1.90;;;;;;;32.30;39.72;97717.46;1823653;78;20981;-61
2021/06/22 13:12:24;;;;;;;8.35;1.95;;;;;;;32.12;38.87;97717.20;1802986;77;21511;-61
2021/06/22 13:14:52;;;;;;;9.20;1.87;;;;;;;31.89;39.72;97726.53;1824038;77;20964;-60
2021/06/22 13:17:27;;;;;;;6.83;1.77;;;;;;;31.69;39.68;97724.49;1827429;78;20890;-60
2021/06/22 13:20:05;;;;;;;11.83;1.72;;;;;;;31.51;40.57;97720.04;1827860;78;21059;-60
2021/06/22 13:22:33;;;;;;;3.75;1.55;;;;;;;31.33;41.04;97723.81;1824894;78;21498;-67
2021/06/22 13:25:04;;;;;;;6.67;1.85;;;;;;;31.20;41.64;97727.12;1824670;78;21471;-60
2021/06/22 13:27:50;;;;;;;5.97;1.72;;;;;;;31.06;41.08;97720.73;1825049;78;21534;-62
2021/06/22 13:30:28;;;;;;;4.70;1.53;;;;;;;30.96;41.95;97729.27;1824964;78;21411;-63
2021/06/22 13:33:00;;;;;;;8.00;1.80;;;;;;;30.89;42.41;97741.28;1824718;78;20963;-61
2021/06/22 13:35:37;;;;;;;5.50;1.52;;;;;;;30.83;43.05;97733.28;1815157;78;24857;-61
2021/06/22 13:38:16;;;;;;;12.20;1.92;;;;;;;30.77;42.94;97729.48;1810579;78;21078;-62
2021/06/22 13:40:54;;;;;;;7.58;1.98;;;;;;;30.71;43.33;97724.30;1795819;77;20967;-62
2021/06/22 13:43:23;;;;;;;7.03;1.87;;;;;;;30.70;44.13;97728.26;1861669;77;20927;-61
2021/06/22 13:45:57;;;;;;;4.87;1.57;;;;;;;30.68;44.08;97730.68;1861552;77;21005;-63
2021/06/22 13:48:32;;;;;;;6.65;1.90;;;;;;;30.75;43.97;97729.73;1861715;77;20868;-64
2021/06/22 13:51:02;;;;;;;;;;;;;;;30.74;43.92;97725.41;1864370;77;21095;-63
2021/06/22 13:53:38;;;;;;;5.70;1.60;;;;;;;30.70;44.14;97731.63;1860004;77;20091;-64
2021/06/22 13:56:04;;;;;;;8.15;2.00;;;;;;;30.60;44.98;97734.80;1846460;77;20904;-65
2021/06/22 13:58:31;;;;;;;7.58;1.80;;;;;;;30.47;45.29;97732.53;1846426;77;20920;-64
2021/06/22 14:00:58;;;;;;;6.28;2.05;;;;;;;30.33;45.79;97735.00;1846629;77;20896;-63
2021/06/22 14:03:24;;;;;;;8.45;1.80;;;;;;;30.21;46.22;97727.92;1832520;77;21730;-64
2021/06/22 14:05:51;;;;;;;6.97;2.25;;;;;;;30.08;46.07;97728.36;1795984;80;20970;-64
2021/06/22 14:08:19;;;;;;;5.95;1.98;;;;;;;30.00;46.15;97729.13;1777992;80;20955;-64
2021/06/22 14:10:49;;;;;;;7.90;1.80;;;;;;;29.97;45.84;97720.91;1777563;80;21564;-63
2021/06/22 14:13:17;;;;;;;9.35;2.40;;;;;;;29.94;46.27;97725.29;1795986;80;21057;-64
2021/06/22 14:15:46;;;;;;;15.98;3.15;;;;;;;29.94;46.59;97717.60;1796129;79;21572;-62
2021/06/22 14:18:12;;;;;;;9.33;2.75;;;;;;;29.93;46.72;97719.61;1796369;80;20883;-64
2021/06/22 14:20:40;;;;;;;8.18;2.52;;;;;;;29.95;46.79;97717.80;1796363;80;21473;-64
2021/06/22 14:23:08;;;;;;;5.58;2.27;;;;;;;29.97;47.10;97717.55;1796711;80;20886;-67
2021/06/22 14:25:39;;;;;;;9.70;3.42;;;;;;;30.00;47.15;97721.45;1796725;80;20925;-63
2021/06/22 14:28:05;;;;;;;20.82;12.25;;;;;;;29.98;47.31;97717.73;1794435;80;21311;-64
2021/06/22 14:30:32;;;;;;;43.30;23.57;;;;;;;29.98;47.48;97727.40;1794870;79;21541;-67
2021/06/22 14:33:00;;;;;;;46.85;30.00;;;;;;;29.89;47.33;97713.36;1796008;80;20958;-64
2021/06/22 14:35:26;;;;;;;35.78;20.30;;;;;;;29.84;47.17;97722.75;1765697;80;20926;-65
2021/06/22 14:37:53;;;;;;;31.05;17.73;;;;;;;29.78;47.35;97714.17;1796540;79;20926;-65
2021/06/22 16:34:19;;;;;;;16.77;3.20;;;;;;;29.69;49.15;97709.19;1871569;76;22611;-62
2021/06/22 16:36:48;;;;;;;11.85;2.60;;;;;;;29.49;49.91;97704.84;1827893;77;21410;-63
2021/06/22 16:39:15;;;;;;;9.35;2.47;;;;;;;29.32;51.04;97699.82;1812479;78;21117;-63
2021/06/22 16:41:42;;;;;;;11.28;2.77;;;;;;;29.17;51.13;97701.22;1795263;80;20950;-64
